Terminal Aerodrome Forecast
Issued by NWS Hastings, NE

Home | Current Version | Previous Version | Text Only | Print | Product List | Glossary On
Versions: 1 2 3 4 5 6 7 8 9 10 11 12 13 14 15 16
128
FTUS45 KGID 301120
TAFEAR
TAF
KEAR 301120Z 3012/3112 18007KT P6SM SCT200
     FM301600 19014KT P6SM SCT250
     FM302000 18016G23KT P6SM VCTS SCT090CB
     FM310000 17014KT P6SM VCTS SCT090CB
     FM310700 26007KT P6SM VCTS BKN080CB
     FM310800 32007KT P6SM SHRA BKN090
      AMD LTD TO CLD VIS AND WIND=

USA.gov is the U.S. government's official web portal to all federal, state and local government web resources and services.